Time;durP1;ratioP1;P1;durP2;ratioP2;P2;SDS_P1;SDS_P2;PMS_P1;PMS_P2;Temp;Humidity;BMP_temperature;BMP_pressure;BME280_temperature;BME280_humidity;BME280_pressure;Samples;Min_cycle;Max_cycle;Signal;HPM_P1;HPM_P2
2022/04/10 00:01:08;;;;;;;8.80;4.23;;;3.40;99.90;;;;;;5021775;28;20552;-71
2022/04/10 00:03:35;;;;;;;13.33;4.20;;;3.30;99.90;;;;;;5027432;28;20473;-70
2022/04/10 00:06:02;;;;;;;9.07;3.93;;;3.30;99.90;;;;;;5033624;28;20445;-71
2022/04/10 00:08:28;;;;;;;7.10;4.03;;;3.30;99.90;;;;;;5032465;28;20473;-71
2022/04/10 00:10:56;;;;;;;6.87;3.80;;;3.30;99.90;;;;;;5032987;28;20531;-71
2022/04/10 00:13:23;;;;;;;4.20;3.50;;;3.20;99.90;;;;;;5014182;28;20458;-71
2022/04/10 00:15:50;;;;;;;3.93;3.40;;;3.20;99.90;;;;;;5014308;28;20953;-71
2022/04/10 00:18:16;;;;;;;7.70;3.97;;;3.20;99.90;;;;;;5024464;28;20470;-70
2022/04/10 00:20:43;;;;;;;7.47;3.90;;;3.20;99.90;;;;;;5014283;28;20478;-71
2022/04/10 00:23:10;;;;;;;9.63;3.90;;;3.10;99.90;;;;;;5028555;28;20459;-70
2022/04/10 00:25:37;;;;;;;6.53;3.90;;;3.10;99.90;;;;;;5032760;28;20476;-70
2022/04/10 00:28:05;;;;;;;9.70;4.03;;;3.10;99.90;;;;;;5016371;28;20527;-71
2022/04/10 00:30:32;;;;;;;6.87;4.43;;;3.10;99.90;;;;;;5033990;28;20476;-71
2022/04/10 00:32:59;;;;;;;5.60;4.10;;;3.10;99.90;;;;;;5025127;28;20457;-70
2022/04/10 00:35:26;;;;;;;11.67;4.23;;;3.10;99.90;;;;;;5014636;28;20455;-70
2022/04/10 00:37:52;;;;;;;12.00;4.10;;;3.00;99.90;;;;;;5026423;28;20519;-70
2022/04/10 00:40:19;;;;;;;10.60;3.83;;;3.00;99.90;;;;;;5017474;28;20481;-71
2022/04/10 00:42:48;;;;;;;5.73;4.23;;;3.00;99.90;;;;;;5025116;28;20454;-71
2022/04/10 00:45:17;;;;;;;4.40;4.00;;;3.00;99.90;;;;;;5013741;28;20453;-71
2022/04/10 00:47:45;;;;;;;13.23;5.03;;;3.00;99.90;;;;;;5013719;28;21050;-70
2022/04/10 00:50:13;;;;;;;10.80;4.03;;;3.00;99.90;;;;;;5014768;28;20474;-70
2022/04/10 00:52:42;;;;;;;7.30;3.83;;;3.00;99.90;;;;;;5024114;28;20449;-71
2022/04/10 00:55:10;;;;;;;8.60;4.27;;;2.90;99.90;;;;;;5013874;28;20450;-71
2022/04/10 00:57:37;;;;;;;13.07;5.70;;;2.90;99.90;;;;;;5027487;28;20511;-71
2022/04/10 01:00:05;;;;;;;5.93;3.70;;;2.80;99.90;;;;;;5024644;28;20477;-71
2022/04/10 01:02:33;;;;;;;8.13;4.70;;;2.80;99.90;;;;;;5032600;28;20531;-71
2022/04/10 01:05:00;;;;;;;11.03;4.53;;;2.80;99.90;;;;;;5032921;28;20517;-71
2022/04/10 01:07:28;;;;;;;6.60;4.30;;;2.70;99.90;;;;;;5030991;28;20504;-71
2022/04/10 01:09:55;;;;;;;5.43;4.10;;;2.70;99.90;;;;;;5031265;28;21063;-71
2022/04/10 01:12:23;;;;;;;6.90;3.87;;;2.70;99.90;;;;;;5032932;28;20984;-71
2022/04/10 01:14:50;;;;;;;5.73;4.50;;;2.70;99.90;;;;;;5031908;28;20507;-71
2022/04/10 01:17:17;;;;;;;12.40;4.50;;;2.60;99.90;;;;;;5031632;28;20463;-71
2022/04/10 01:19:45;;;;;;;8.20;4.53;;;2.60;99.90;;;;;;5019890;28;20470;-70
2022/04/10 01:22:24;;;;;;;13.20;5.00;;;2.60;99.90;;;;;;5013070;28;21018;-71
2022/04/10 01:24:51;;;;;;;9.00;5.43;;;2.60;99.90;;;;;;5012831;28;20450;-71
2022/04/10 01:27:18;;;;;;;7.33;4.03;;;2.60;99.90;;;;;;5018018;28;20458;-72
2022/04/10 01:29:44;;;;;;;11.17;3.73;;;2.50;99.90;;;;;;5017666;28;21250;-71
2022/04/10 01:32:11;;;;;;;5.97;3.97;;;2.50;99.90;;;;;;5013199;28;20450;-71
2022/04/10 01:34:40;;;;;;;5.90;3.70;;;2.60;99.90;;;;;;5031967;28;20454;-71
2022/04/10 01:37:08;;;;;;;8.70;4.60;;;2.60;99.90;;;;;;5032304;28;20595;-70
2022/04/10 01:39:36;;;;;;;13.33;4.30;;;2.70;99.90;;;;;;5014855;28;20475;-72
2022/04/10 01:42:03;;;;;;;4.97;4.47;;;2.70;99.90;;;;;;5022590;28;20555;-71
2022/04/10 01:44:30;;;;;;;10.43;4.37;;;2.70;99.90;;;;;;5019769;28;20504;-70
2022/04/10 01:46:56;;;;;;;11.30;5.47;;;2.80;99.90;;;;;;5019644;28;20449;-71
2022/04/10 01:49:23;;;;;;;11.20;4.03;;;2.80;99.90;;;;;;5031168;28;20530;-71
2022/04/10 01:51:50;;;;;;;7.73;4.43;;;2.70;99.90;;;;;;5031691;28;20457;-71
2022/04/10 01:54:17;;;;;;;10.43;4.80;;;2.80;99.90;;;;;;5012367;28;20464;-71
2022/04/10 01:56:46;;;;;;;10.43;4.53;;;2.80;99.90;;;;;;5012422;28;20556;-71
2022/04/10 01:59:12;;;;;;;9.00;4.20;;;2.80;99.90;;;;;;5012231;28;20482;-70
2022/04/10 02:01:39;;;;;;;9.67;4.10;;;2.80;99.90;;;;;;5025261;28;20511;-71
2022/04/10 02:04:06;;;;;;;12.65;4.60;;;2.90;99.90;;;;;;5025664;28;20449;-72
2022/04/10 02:06:35;;;;;;;12.03;4.90;;;2.80;99.90;;;;;;5013549;28;20838;-72
2022/04/10 02:09:01;;;;;;;20.63;4.30;;;2.80;99.90;;;;;;5017278;28;20481;-72
2022/04/10 02:11:28;;;;;;;10.23;4.63;;;2.80;99.90;;;;;;5026056;28;20453;-72
2022/04/10 02:13:56;;;;;;;9.67;4.93;;;2.80;99.90;;;;;;5027503;28;20449;-72
2022/04/10 02:16:23;;;;;;;11.30;4.40;;;2.80;99.90;;;;;;5016688;28;20450;-72
2022/04/10 02:18:49;;;;;;;9.43;4.47;;;2.70;99.90;;;;;;5012413;28;20528;-72
2022/04/10 02:21:16;;;;;;;7.07;3.87;;;2.60;99.90;;;;;;5021577;28;20527;-72
2022/04/10 02:23:43;;;;;;;12.50;4.60;;;2.60;99.90;;;;;;5023859;28;20449;-72
2022/04/10 02:26:11;;;;;;;15.53;4.77;;;2.50;99.90;;;;;;5016161;28;20487;-72
2022/04/10 02:28:38;;;;;;;6.67;4.73;;;2.50;99.90;;;;;;5018263;28;20508;-72
2022/04/10 02:31:06;;;;;;;9.30;3.53;;;2.50;99.90;;;;;;5015246;28;20447;-72
2022/04/10 02:33:33;;;;;;;6.77;3.80;;;2.40;99.90;;;;;;5014459;28;20550;-72
2022/04/10 02:36:00;;;;;;;3.87;3.47;;;2.40;99.90;;;;;;5013019;28;20516;-72
2022/04/10 02:38:27;;;;;;;11.40;3.70;;;2.50;99.90;;;;;;5015187;28;20908;-72
2022/04/10 02:40:53;;;;;;;5.60;3.50;;;2.40;99.90;;;;;;5023573;28;20996;-72
2022/04/10 02:43:20;;;;;;;10.90;3.90;;;2.40;99.90;;;;;;5021280;28;20445;-72
2022/04/10 02:45:47;;;;;;;12.80;6.63;;;2.40;99.90;;;;;;5027761;28;20450;-72
2022/04/10 02:48:15;;;;;;;9.80;5.70;;;2.40;99.90;;;;;;5026115;28;20474;-72
2022/04/10 02:50:42;;;;;;;9.47;5.10;;;2.40;99.90;;;;;;5014264;28;20449;-72
2022/04/10 02:53:08;;;;;;;18.03;5.00;;;2.30;99.90;;;;;;5016418;28;20454;-72
2022/04/10 02:55:35;;;;;;;8.43;4.17;;;2.30;99.90;;;;;;5021508;28;20454;-72
2022/04/10 02:58:02;;;;;;;8.83;4.50;;;2.30;99.90;;;;;;5019512;28;20611;-72
2022/04/10 03:00:29;;;;;;;10.10;4.30;;;2.20;99.90;;;;;;5025525;28;20619;-72
2022/04/10 03:02:56;;;;;;;10.40;4.20;;;2.20;99.90;;;;;;5022802;28;20994;-72
2022/04/10 03:05:24;;;;;;;11.10;4.10;;;2.20;99.90;;;;;;5018776;28;20454;-72
2022/04/10 03:07:51;;;;;;;5.93;3.73;;;2.10;99.90;;;;;;5014746;28;20516;-72
2022/04/10 03:10:17;;;;;;;13.20;4.20;;;2.10;99.90;;;;;;5013300;28;20454;-72
2022/04/10 03:12:44;;;;;;;13.70;4.43;;;2.10;99.90;;;;;;5023687;28;20492;-72
2022/04/10 03:15:11;;;;;;;12.07;4.03;;;2.10;99.90;;;;;;5025664;28;20855;-72
2022/04/10 03:17:38;;;;;;;8.30;3.87;;;2.10;99.90;;;;;;5021106;28;20541;-72
2022/04/10 03:20:06;;;;;;;13.07;3.40;;;2.10;99.90;;;;;;5014020;28;20470;-72
2022/04/10 03:22:34;;;;;;;10.20;4.30;;;2.10;99.90;;;;;;5013458;28;20486;-72
2022/04/10 03:25:00;;;;;;;13.27;4.23;;;2.10;99.90;;;;;;5017684;28;20899;-72
2022/04/10 03:27:27;;;;;;;7.83;3.93;;;2.10;99.90;;;;;;5019904;28;20505;-72
2022/04/10 03:29:54;;;;;;;12.17;4.30;;;2.00;99.90;;;;;;5023297;28;20474;-72
2022/04/10 03:32:20;;;;;;;9.53;4.40;;;2.00;99.90;;;;;;5018120;28;21171;-72
2022/04/10 03:34:47;;;;;;;8.77;4.63;;;2.00;99.90;;;;;;5025902;28;20446;-72
2022/04/10 03:37:13;;;;;;;7.03;3.90;;;2.00;99.90;;;;;;5026953;28;20457;-72
2022/04/10 03:39:41;;;;;;;23.87;5.27;;;2.00;99.90;;;;;;5023104;28;20478;-72
2022/04/10 03:42:09;;;;;;;10.27;4.90;;;2.00;99.90;;;;;;5026965;28;21084;-72
2022/04/10 03:44:35;;;;;;;8.00;4.67;;;2.10;99.90;;;;;;5021555;28;20446;-72
2022/04/10 03:47:02;;;;;;;14.67;5.03;;;2.10;99.90;;;;;;5014527;28;20458;-72
2022/04/10 03:49:29;;;;;;;9.07;4.90;;;2.10;99.90;;;;;;5019073;28;20985;-72
2022/04/10 03:51:55;;;;;;;15.60;5.43;;;2.10;99.90;;;;;;5026921;28;20450;-72
2022/04/10 03:54:22;;;;;;;9.47;5.00;;;2.20;99.90;;;;;;5024335;28;20492;-72
2022/04/10 03:56:50;;;;;;;18.80;5.10;;;2.20;99.90;;;;;;5021508;28;20874;-72
2022/04/10 03:59:17;;;;;;;8.27;5.00;;;2.20;99.90;;;;;;5012684;28;20478;-72
2022/04/10 04:01:43;;;;;;;15.30;5.13;;;2.20;99.90;;;;;;5022870;28;20478;-72
2022/04/10 04:04:10;;;;;;;12.03;5.80;;;2.20;99.90;;;;;;5025421;28;20508;-72
2022/04/10 04:06:36;;;;;;;19.80;5.20;;;2.20;99.90;;;;;;5013875;28;20492;-72
2022/04/10 04:09:04;;;;;;;8.57;5.03;;;2.20;99.90;;;;;;5017304;28;20477;-72
2022/04/10 04:11:30;;;;;;;9.43;5.60;;;2.30;99.90;;;;;;5023639;28;20450;-72
2022/04/10 04:13:58;;;;;;;8.03;4.83;;;2.20;99.90;;;;;;5013950;28;20876;-71
2022/04/10 04:16:25;;;;;;;10.93;5.10;;;2.20;99.90;;;;;;5024298;28;20448;-72
2022/04/10 04:18:51;;;;;;;10.10;5.43;;;2.20;99.90;;;;;;5013257;28;20474;-72
2022/04/10 04:21:18;;;;;;;13.67;5.43;;;2.20;99.90;;;;;;5012613;28;20454;-72
2022/04/10 04:23:45;;;;;;;11.03;5.07;;;2.20;99.90;;;;;;5014386;28;20883;-72
2022/04/10 04:26:11;;;;;;;9.43;5.60;;;2.20;99.90;;;;;;5019067;28;20458;-72
2022/04/10 04:28:38;;;;;;;9.13;5.13;;;2.20;99.90;;;;;;5021310;28;20546;-72
2022/04/10 04:31:06;;;;;;;17.50;5.60;;;2.20;99.90;;;;;;5015989;28;20994;-72
2022/04/10 04:33:32;;;;;;;8.00;4.43;;;2.20;99.90;;;;;;5016758;28;20461;-72
2022/04/10 04:35:59;;;;;;;19.03;5.20;;;2.20;99.90;;;;;;5020362;28;20457;-72
2022/04/10 04:38:26;;;;;;;19.33;5.23;;;2.30;99.90;;;;;;5028364;28;20469;-72
2022/04/10 04:40:52;;;;;;;10.10;4.73;;;2.30;99.90;;;;;;5018538;28;20900;-73
2022/04/10 04:43:19;;;;;;;12.53;5.03;;;2.40;99.90;;;;;;5017503;28;21029;-72
2022/04/10 04:45:45;;;;;;;10.70;4.80;;;2.40;99.90;;;;;;5015836;28;20507;-72
2022/04/10 04:48:13;;;;;;;10.40;4.60;;;2.40;99.90;;;;;;5019256;28;20499;-72
2022/04/10 04:50:42;;;;;;;13.67;5.70;;;2.40;99.90;;;;;;5015942;28;20470;-72
2022/04/10 04:53:09;;;;;;;7.53;4.50;;;2.40;99.90;;;;;;5019943;28;20454;-72
2022/04/10 04:55:36;;;;;;;18.13;5.13;;;2.40;99.90;;;;;;5021780;28;20500;-73
2022/04/10 04:58:02;;;;;;;9.83;4.40;;;2.40;99.90;;;;;;5019249;28;20457;-74
2022/04/10 05:00:29;;;;;;;6.80;4.60;;;2.40;99.90;;;;;;5017873;28;20457;-73
2022/04/10 05:02:56;;;;;;;8.90;4.57;;;2.40;99.90;;;;;;5015238;28;20489;-74
2022/04/10 05:05:25;;;;;;;9.67;4.20;;;2.50;99.90;;;;;;5026170;28;20445;-73
2022/04/10 05:07:51;;;;;;;14.53;4.20;;;2.50;99.90;;;;;;5022364;28;20457;-73
2022/04/10 05:10:18;;;;;;;6.87;4.53;;;2.40;99.90;;;;;;5017747;28;20500;-73
2022/04/10 05:12:45;;;;;;;7.70;4.50;;;2.40;99.90;;;;;;5014917;28;20903;-74
2022/04/10 05:15:11;;;;;;;12.43;4.93;;;2.50;99.90;;;;;;5020829;28;20522;-73
2022/04/10 05:17:38;;;;;;;16.10;5.07;;;2.50;99.90;;;;;;5020965;28;20458;-74
2022/04/10 05:20:06;;;;;;;13.60;5.43;;;2.50;99.90;;;;;;5014167;28;20478;-74
2022/04/10 05:22:34;;;;;;;11.80;4.83;;;2.50;99.90;;;;;;5020847;28;21989;-74
2022/04/10 05:25:01;;;;;;;9.67;4.77;;;2.50;99.90;;;;;;5014317;28;20447;-73
2022/04/10 05:27:28;;;;;;;8.43;4.07;;;2.60;99.90;;;;;;5023851;28;20502;-73
2022/04/10 05:29:54;;;;;;;9.03;4.40;;;2.60;99.90;;;;;;5026192;28;20528;-74
2022/04/10 05:32:21;;;;;;;14.67;5.47;;;2.70;99.90;;;;;;5020500;28;20441;-73
2022/04/10 05:34:48;;;;;;;18.53;5.90;;;2.90;99.90;;;;;;5021805;28;21096;-75
2022/04/10 05:37:14;;;;;;;13.37;4.77;;;3.20;99.90;;;;;;5021032;28;20508;-73
2022/04/10 05:39:42;;;;;;;10.23;4.80;;;3.50;99.90;;;;;;5016417;28;20478;-74
2022/04/10 05:42:09;;;;;;;7.03;4.20;;;3.90;99.90;;;;;;5018222;28;20529;-73
2022/04/10 05:44:36;;;;;;;13.83;5.00;;;4.10;99.90;;;;;;5014882;28;20458;-73
2022/04/10 05:47:03;;;;;;;22.73;5.33;;;4.20;99.90;;;;;;5015622;28;20943;-73
2022/04/10 05:49:30;;;;;;;8.80;5.17;;;4.10;99.90;;;;;;5019698;28;20488;-74
2022/04/10 05:51:56;;;;;;;5.50;4.80;;;3.90;99.90;;;;;;5020064;28;20454;-74
2022/04/10 05:54:23;;;;;;;9.90;4.70;;;3.80;99.90;;;;;;5020294;28;20454;-74
2022/04/10 05:56:51;;;;;;;10.00;5.00;;;3.70;99.90;;;;;;5019262;28;20528;-73
2022/04/10 05:59:17;;;;;;;12.63;5.30;;;3.90;99.90;;;;;;5027108;28;20473;-73
2022/04/10 06:01:44;;;;;;;14.00;5.00;;;4.20;99.90;;;;;;5026313;28;20934;-74
2022/04/10 06:04:11;;;;;;;9.47;5.03;;;4.40;99.90;;;;;;5021989;28;20466;-74
2022/04/10 06:06:37;;;;;;;8.70;4.83;;;4.70;99.90;;;;;;5020916;28;20519;-74
2022/04/10 06:09:04;;;;;;;20.30;6.90;;;5.10;99.90;;;;;;5016263;28;21064;-75
2022/04/10 06:11:31;;;;;;;6.33;4.10;;;5.60;99.90;;;;;;5014461;28;20843;-75
2022/04/10 06:13:59;;;;;;;5.30;3.83;;;6.00;99.90;;;;;;5013763;28;20854;-75
2022/04/10 06:16:26;;;;;;;14.20;4.40;;;6.20;99.90;;;;;;5014402;28;20524;-75
2022/04/10 06:18:52;;;;;;;10.90;4.40;;;6.50;99.90;;;;;;5024881;28;20470;-74
2022/04/10 06:21:19;;;;;;;8.70;4.30;;;6.50;99.90;;;;;;5016360;28;20477;-76
2022/04/10 06:23:46;;;;;;;11.00;4.20;;;6.30;99.90;;;;;;5023928;28;20859;-76
2022/04/10 06:26:12;;;;;;;8.40;3.73;;;6.40;99.90;;;;;;5022627;28;20458;-76
2022/04/10 06:28:39;;;;;;;12.67;4.63;;;6.60;99.90;;;;;;5024222;28;20478;-74
2022/04/10 06:31:07;;;;;;;8.57;4.30;;;6.60;99.90;;;;;;5015722;28;20458;-75
2022/04/10 06:33:33;;;;;;;8.73;4.30;;;6.80;99.90;;;;;;5013771;28;20508;-74
2022/04/10 06:36:00;;;;;;;10.40;3.87;;;7.20;99.90;;;;;;5019908;28;20462;-74
2022/04/10 06:38:27;;;;;;;11.80;4.67;;;7.80;99.90;;;;;;5016183;28;21021;-74
2022/04/10 06:40:53;;;;;;;10.00;4.30;;;8.20;99.90;;;;;;5028232;28;20468;-74
2022/04/10 06:43:20;;;;;;;15.20;4.63;;;8.10;99.90;;;;;;5026876;28;20484;-75
2022/04/10 06:45:47;;;;;;;9.90;3.60;;;8.10;99.90;;;;;;5020281;28;20450;-75
2022/04/10 06:48:15;;;;;;;13.90;4.87;;;7.90;99.90;;;;;;5015547;28;20474;-75
2022/04/10 06:50:42;;;;;;;6.73;3.97;;;7.80;99.90;;;;;;5015173;28;20446;-75
2022/04/10 06:53:09;;;;;;;12.63;4.47;;;7.80;99.90;;;;;;5026707;28;20446;-74
2022/04/10 06:55:36;;;;;;;9.70;4.07;;;7.90;99.90;;;;;;5014924;28;20970;-75
2022/04/10 06:58:03;;;;;;;11.07;4.30;;;7.90;99.90;;;;;;5017737;28;20520;-76
2022/04/10 07:00:30;;;;;;;9.87;4.40;;;8.10;99.90;;;;;;5014973;28;20466;-74
2022/04/10 07:02:57;;;;;;;11.73;4.00;;;8.60;99.90;;;;;;5021857;28;20577;-74
2022/04/10 07:05:24;;;;;;;5.90;3.53;;;8.60;99.90;;;;;;5021731;28;20461;-75
2022/04/10 07:07:51;;;;;;;8.23;3.87;;;8.80;99.90;;;;;;5015272;28;20499;-74
2022/04/10 07:10:18;;;;;;;10.43;4.60;;;8.50;99.90;;;;;;5018497;28;20482;-74
2022/04/10 07:12:45;;;;;;;9.50;3.97;;;8.30;99.90;;;;;;5013210;28;20858;-74
2022/04/10 07:15:11;;;;;;;9.70;3.83;;;8.30;99.90;;;;;;5018874;28;20500;-75
2022/04/10 07:17:38;;;;;;;6.63;3.80;;;8.30;99.90;;;;;;5013926;28;20450;-74
2022/04/10 07:20:06;;;;;;;12.17;5.10;;;8.50;99.90;;;;;;5013364;28;20536;-74
2022/04/10 07:25:18;;;;;;;10.90;4.30;;;8.70;99.90;;;;;;5018783;28;20470;-73
2022/04/10 07:27:44;;;;;;;11.10;4.97;;;8.80;99.90;;;;;;5013181;28;20449;-75
2022/04/10 07:30:12;;;;;;;8.43;4.57;;;8.60;99.90;;;;;;5013710;28;20497;-74
2022/04/10 07:32:39;;;;;;;7.10;3.80;;;8.50;99.90;;;;;;5024085;28;20454;-74
2022/04/10 07:35:06;;;;;;;17.03;4.40;;;8.40;99.90;;;;;;5027693;28;20489;-74
2022/04/10 07:37:34;;;;;;;8.30;4.37;;;8.70;99.90;;;;;;5024975;28;20536;-74
2022/04/10 07:40:02;;;;;;;14.40;3.30;;;9.10;99.90;;;;;;5022370;28;20470;-74
2022/04/10 07:42:29;;;;;;;8.80;3.27;;;9.30;99.90;;;;;;5014220;28;20568;-74
2022/04/10 07:44:59;;;;;;;9.80;3.23;;;9.40;99.90;;;;;;5012734;28;20450;-74
2022/04/10 07:47:28;;;;;;;6.40;3.50;;;9.50;99.90;;;;;;5013647;28;20543;-74
2022/04/10 07:49:55;;;;;;;7.07;3.10;;;9.30;99.90;;;;;;5025398;28;20472;-74
2022/04/10 07:52:22;;;;;;;6.80;3.47;;;8.90;99.90;;;;;;5014691;28;20454;-74
2022/04/10 07:54:52;;;;;;;6.17;3.23;;;9.00;99.90;;;;;;5014900;28;20516;-72
2022/04/10 07:57:18;;;;;;;8.67;4.00;;;9.40;99.90;;;;;;5014320;28;20564;-72
2022/04/10 07:59:45;;;;;;;9.07;3.60;;;9.50;99.90;;;;;;5019564;28;20466;-73
2022/04/10 08:02:12;;;;;;;9.77;3.43;;;9.40;99.90;;;;;;5024851;28;20458;-72
2022/04/10 08:04:39;;;;;;;9.80;3.50;;;9.20;99.90;;;;;;5022731;28;20457;-73
2022/04/10 08:07:06;;;;;;;9.40;3.40;;;9.20;99.90;;;;;;5026101;28;20453;-73
2022/04/10 08:09:33;;;;;;;12.67;3.53;;;9.30;99.90;;;;;;5028085;28;20531;-72
2022/04/10 08:12:01;;;;;;;11.00;3.43;;;9.30;99.90;;;;;;5027369;28;20532;-72
2022/04/10 08:14:27;;;;;;;9.50;3.13;;;9.20;99.90;;;;;;5019030;28;20456;-71
2022/04/10 08:16:54;;;;;;;6.80;3.07;;;8.90;99.90;;;;;;5026060;28;20453;-72
2022/04/10 08:19:21;;;;;;;6.20;2.80;;;8.90;99.90;;;;;;5024565;28;20839;-72
2022/04/10 08:21:47;;;;;;;6.77;3.20;;;8.90;99.90;;;;;;5026536;28;20453;-72
2022/04/10 08:24:14;;;;;;;7.80;2.80;;;9.20;99.90;;;;;;5029298;28;20481;-73
2022/04/10 08:26:41;;;;;;;7.90;3.00;;;9.20;99.90;;;;;;5021918;28;20449;-73
2022/04/10 08:29:09;;;;;;;7.17;3.60;;;9.30;99.90;;;;;;5023505;28;20529;-72
2022/04/10 08:31:35;;;;;;;11.17;3.33;;;9.30;99.90;;;;;;5019463;28;20451;-73
2022/04/10 08:34:02;;;;;;;4.70;2.80;;;9.10;99.90;;;;;;5024864;28;20903;-72
2022/04/10 08:36:29;;;;;;;6.17;3.33;;;8.90;99.90;;;;;;5027889;28;20450;-72
2022/04/10 08:38:57;;;;;;;4.53;2.90;;;8.20;99.90;;;;;;5029100;28;20527;-72
2022/04/10 08:41:29;;;;;;;7.23;3.63;;;8.40;99.90;;;;;;5021558;28;20456;-74
2022/04/10 08:43:56;;;;;;;8.57;3.13;;;9.00;99.90;;;;;;5022022;28;20833;-73
2022/04/10 08:46:26;;;;;;;6.23;3.27;;;9.30;99.90;;;;;;5028401;28;21027;-74
2022/04/10 08:48:53;;;;;;;6.47;3.00;;;9.40;99.90;;;;;;5024592;28;20477;-75
2022/04/10 08:51:21;;;;;;;5.93;3.00;;;9.30;99.90;;;;;;5024072;28;20930;-74
2022/04/10 08:53:48;;;;;;;11.30;3.70;;;9.50;99.90;;;;;;5023383;28;20457;-75
2022/04/10 08:56:15;;;;;;;6.13;2.80;;;9.90;99.90;;;;;;5024429;28;20454;-75
2022/04/10 08:58:42;;;;;;;6.03;3.07;;;10.20;99.90;;;;;;5018246;28;20462;-75
2022/04/10 09:01:11;;;;;;;6.17;3.30;;;10.30;99.90;;;;;;5013831;28;20863;-75
2022/04/10 09:03:39;;;;;;;8.17;2.73;;;10.20;99.90;;;;;;5013049;28;21029;-74
2022/04/10 09:06:07;;;;;;;6.40;3.63;;;10.00;99.90;;;;;;5013711;28;20458;-74
2022/04/10 09:08:34;;;;;;;5.77;3.30;;;10.20;99.90;;;;;;5023004;28;20523;-74
2022/04/10 09:11:02;;;;;;;7.00;3.43;;;10.40;99.90;;;;;;5028096;28;20454;-74
2022/04/10 09:13:34;;;;;;;7.83;3.33;;;10.40;99.90;;;;;;5012900;28;20454;-74
2022/04/10 09:16:13;;;;;;;6.47;4.00;;;10.40;99.90;;;;;;5022945;28;21013;-73
2022/04/10 09:18:51;;;;;;;8.90;3.47;;;10.60;99.90;;;;;;5033564;28;20543;-73
2022/04/10 09:21:20;;;;;;;8.17;3.60;;;10.80;99.90;;;;;;5013297;28;20989;-74
2022/04/10 09:23:54;;;;;;;3.50;3.20;;;10.90;99.90;;;;;;5013099;28;20481;-74
2022/04/10 09:26:20;;;;;;;4.10;2.90;;;11.40;99.90;;;;;;5020199;28;20458;-74
2022/04/10 09:28:49;;;;;;;5.33;3.43;;;11.60;99.90;;;;;;5032364;28;20519;-74
2022/04/10 09:31:32;;;;;;;5.30;3.30;;;11.70;99.90;;;;;;5020830;28;21001;-74
2022/04/10 09:34:02;;;;;;;4.73;3.17;;;11.50;99.90;;;;;;5019066;28;20832;-74
2022/04/10 09:36:37;;;;;;;5.90;3.60;;;11.30;99.90;;;;;;5019098;28;20447;-74
2022/04/10 09:39:07;;;;;;;6.70;3.13;;;11.30;99.90;;;;;;5018929;28;20855;-73
2022/04/10 09:41:33;;;;;;;7.83;3.63;;;11.10;99.90;;;;;;5016902;28;21012;-74
2022/04/10 09:44:02;;;;;;;3.87;3.30;;;10.80;99.90;;;;;;5022271;28;20531;-72
2022/04/10 09:46:30;;;;;;;9.00;3.90;;;10.30;99.90;;;;;;5018795;28;20468;-73
2022/04/10 09:48:57;;;;;;;7.90;3.33;;;10.10;99.90;;;;;;5016920;28;20532;-73
2022/04/10 09:51:25;;;;;;;4.63;3.10;;;10.20;99.90;;;;;;5022183;28;20457;-74
2022/04/10 09:54:02;;;;;;;6.90;3.27;;;10.60;99.90;;;;;;5027529;28;20504;-73
2022/04/10 09:56:29;;;;;;;8.50;4.00;;;11.30;99.90;;;;;;5022152;28;20504;-74
2022/04/10 09:58:58;;;;;;;9.23;4.10;;;11.00;99.90;;;;;;5021453;28;21071;-74
2022/04/10 10:01:26;;;;;;;4.60;3.40;;;11.00;99.90;;;;;;5018337;28;20871;-73
2022/04/10 10:03:55;;;;;;;7.67;3.13;;;11.00;99.90;;;;;;5023569;28;20484;-73
2022/04/10 10:06:23;;;;;;;5.00;3.53;;;10.80;99.90;;;;;;5014177;28;20450;-73
2022/04/10 10:08:51;;;;;;;6.23;3.10;;;10.70;99.90;;;;;;5025198;28;20473;-75
2022/04/10 10:11:19;;;;;;;6.03;3.33;;;10.70;99.90;;;;;;5014017;28;20510;-74
2022/04/10 10:13:47;;;;;;;4.30;3.63;;;10.80;99.90;;;;;;5019109;28;20505;-75
2022/04/10 10:16:14;;;;;;;6.47;3.60;;;10.70;99.90;;;;;;5016622;28;20516;-75
2022/04/10 10:18:44;;;;;;;10.47;4.03;;;10.40;99.90;;;;;;5016771;28;20497;-75
2022/04/10 10:21:11;;;;;;;6.03;2.97;;;10.40;99.90;;;;;;5012722;28;20524;-75
2022/04/10 10:23:41;;;;;;;10.17;2.80;;;10.30;99.90;;;;;;5016782;28;20481;-74
2022/04/10 10:26:19;;;;;;;6.73;3.33;;;10.30;99.90;;;;;;5026433;28;21005;-75
2022/04/10 10:29:07;;;;;;;11.93;4.60;;;10.20;99.90;;;;;;5014858;28;20540;-74
2022/04/10 10:31:53;;;;;;;5.70;3.53;;;9.80;99.90;;;;;;5016169;28;20465;-74
2022/04/10 10:34:23;;;;;;;4.43;3.50;;;10.00;99.90;;;;;;5017674;28;20491;-74
2022/04/10 10:36:49;;;;;;;7.00;3.10;;;10.70;99.90;;;;;;5020211;28;20457;-74
2022/04/10 10:39:17;;;;;;;3.63;3.03;;;11.30;99.90;;;;;;5018867;28;20512;-74
2022/04/10 10:41:51;;;;;;;3.30;2.80;;;11.90;99.90;;;;;;5014633;28;20516;-74
2022/04/10 10:44:42;;;;;;;4.43;2.50;;;12.10;99.90;;;;;;5019897;28;20482;-74
2022/04/10 10:47:21;;;;;;;4.40;2.53;;;11.80;99.90;;;;;;5026127;28;20457;-74
2022/04/10 10:49:49;;;;;;;6.00;2.40;;;11.80;99.90;;;;;;5018412;28;20473;-74
2022/04/10 10:52:17;;;;;;;5.27;2.70;;;12.10;99.90;;;;;;5013703;28;20462;-74
2022/04/10 10:54:46;;;;;;;6.53;3.30;;;12.50;99.90;;;;;;5016541;28;20450;-74
2022/04/10 10:57:25;;;;;;;5.67;3.10;;;12.90;99.90;;;;;;5021984;28;20458;-74
2022/04/10 10:59:52;;;;;;;5.77;3.20;;;12.90;99.90;;;;;;5026265;28;20539;-74
2022/04/10 11:02:21;;;;;;;5.40;3.23;;;13.10;99.90;;;;;;5016172;28;20450;-75
2022/04/10 11:04:49;;;;;;;4.00;3.00;;;13.40;99.90;;;;;;5027937;28;20587;-75
2022/04/10 11:07:24;;;;;;;5.67;2.87;;;13.40;99.90;;;;;;5020939;28;20454;-75
2022/04/10 11:09:55;;;;;;;2.70;2.50;;;13.00;99.90;;;;;;5019312;28;20485;-74
2022/04/10 11:12:30;;;;;;;5.53;3.10;;;12.20;99.90;;;;;;5025228;28;20445;-75
2022/04/10 11:14:59;;;;;;;3.03;2.27;;;11.50;99.90;;;;;;5013020;28;20449;-74
2022/04/10 11:17:28;;;;;;;8.27;3.17;;;11.00;99.90;;;;;;5019411;28;20573;-74
2022/04/10 11:19:57;;;;;;;2.77;2.57;;;10.90;99.90;;;;;;5013548;28;20478;-75
2022/04/10 11:22:25;;;;;;;7.33;2.77;;;11.60;99.90;;;;;;5026358;28;20508;-75
2022/04/10 11:24:53;;;;;;;4.67;2.63;;;11.80;99.90;;;;;;5025615;28;20563;-74
2022/04/10 11:27:48;;;;;;;6.47;2.80;;;12.30;99.90;;;;;;5017603;28;20450;-74
2022/04/10 11:30:16;;;;;;;4.20;2.67;;;12.50;99.90;;;;;;5018990;28;20524;-74
2022/04/10 11:32:45;;;;;;;7.03;3.00;;;12.10;99.90;;;;;;5018506;28;20452;-75
2022/04/10 11:35:15;;;;;;;4.73;2.17;;;11.90;99.90;;;;;;5021536;28;20445;-74
2022/04/10 11:37:44;;;;;;;3.67;2.40;;;12.10;99.90;;;;;;5025714;28;21019;-73
2022/04/10 11:40:12;;;;;;;3.00;2.37;;;12.40;99.90;;;;;;5024843;28;20478;-75
2022/04/10 11:42:38;;;;;;;2.50;2.30;;;12.90;99.90;;;;;;5031694;28;20867;-74
2022/04/10 11:45:09;;;;;;;2.73;2.53;;;13.40;99.90;;;;;;5029559;28;20484;-73
2022/04/10 11:47:38;;;;;;;2.83;2.50;;;13.70;99.90;;;;;;5016386;28;20450;-74
2022/04/10 11:50:07;;;;;;;4.23;2.50;;;13.40;99.50;;;;;;5027470;28;21074;-74
2022/04/10 11:52:33;;;;;;;4.30;2.20;;;13.30;99.90;;;;;;5024231;28;20459;-74
2022/04/10 11:55:00;;;;;;;5.03;2.97;;;13.20;99.90;;;;;;5017225;28;20659;-73
2022/04/10 11:57:27;;;;;;;7.60;2.60;;;13.00;99.90;;;;;;5017485;28;20458;-73
2022/04/10 11:59:55;;;;;;;4.50;2.60;;;13.30;99.90;;;;;;5020517;28;20504;-73
2022/04/10 12:02:23;;;;;;;2.30;2.10;;;13.10;99.90;;;;;;5018012;28;20540;-73
2022/04/10 12:04:52;;;;;;;4.40;2.50;;;13.20;99.90;;;;;;5019645;28;20479;-71
2022/04/10 12:07:20;;;;;;;4.50;2.50;;;13.20;99.90;;;;;;5029538;28;20553;-72
2022/04/10 12:09:48;;;;;;;5.10;2.37;;;12.80;99.90;;;;;;5020836;28;20492;-72
2022/04/10 12:12:16;;;;;;;3.30;2.40;;;12.90;99.90;;;;;;5017160;28;20462;-72
2022/04/10 12:14:42;;;;;;;3.10;2.57;;;12.90;99.90;;;;;;5020096;28;20449;-72
2022/04/10 12:17:32;;;;;;;3.40;2.63;;;13.30;99.90;;;;;;5029408;28;20456;-72
2022/04/10 12:19:58;;;;;;;4.00;2.67;;;13.20;99.90;;;;;;5019829;28;20896;-71
2022/04/10 12:22:25;;;;;;;4.03;2.50;;;12.80;99.90;;;;;;5018514;28;20485;-71
2022/04/10 12:24:58;;;;;;;3.30;2.80;;;12.90;99.90;;;;;;5020786;28;20534;-71
2022/04/10 12:27:25;;;;;;;2.83;2.30;;;13.30;99.90;;;;;;5020560;28;20457;-72
2022/04/10 12:29:52;;;;;;;4.50;2.87;;;13.80;99.90;;;;;;5016428;28;20887;-72
2022/04/10 12:32:19;;;;;;;3.13;2.20;;;14.30;99.90;;;;;;5028905;28;20510;-72
2022/04/10 12:34:47;;;;;;;2.63;2.10;;;14.10;98.10;;;;;;5016252;28;20500;-72
2022/04/10 12:37:15;;;;;;;3.10;2.30;;;13.80;97.80;;;;;;5015683;28;21152;-72
2022/04/10 12:39:46;;;;;;;5.83;2.93;;;13.50;98.50;;;;;;5025369;28;20993;-72
2022/04/10 12:42:19;;;;;;;5.83;2.70;;;13.10;98.30;;;;;;5028828;28;21213;-72
2022/04/10 12:44:55;;;;;;;3.97;2.30;;;12.70;99.90;;;;;;5030227;28;20484;-72
2022/04/10 12:47:44;;;;;;;2.63;2.40;;;12.80;99.90;;;;;;5027771;28;20454;-72
2022/04/10 12:50:14;;;;;;;4.60;2.50;;;13.00;99.90;;;;;;5028721;28;20473;-72
2022/04/10 12:52:42;;;;;;;5.33;2.50;;;12.70;99.90;;;;;;5017026;28;21025;-71
2022/04/10 12:55:19;;;;;;;6.20;2.60;;;12.80;99.90;;;;;;5021836;28;20441;-72
2022/04/10 12:57:54;;;;;;;7.40;3.23;;;13.30;99.90;;;;;;5030212;28;20453;-72